Time;durP1;ratioP1;P1;durP2;ratioP2;P2;SDS_P1;SDS_P2;PMS_P1;PMS_P2;Temp;Humidity;BMP_temperature;BMP_pressure;BME280_temperature;BME280_humidity;BME280_pressure;Samples;Min_cycle;Max_cycle;Signal;HPM_P1;HPM_P2
2022/11/30 00:01:55;;;;;;;13.15;11.23;;;;;;;8.74;100.00;99795.03;5052435;28;20501;-54
2022/11/30 00:04:22;;;;;;;9.97;8.40;;;;;;;8.76;100.00;99793.41;5052795;28;20222;-54
2022/11/30 00:06:49;;;;;;;12.13;9.53;;;;;;;8.75;100.00;99796.78;5052936;28;20187;-55
2022/11/30 00:09:16;;;;;;;13.27;10.07;;;;;;;8.66;100.00;99799.94;5052558;28;20596;-54
2022/11/30 00:11:45;;;;;;;11.13;8.83;;;;;;;8.65;100.00;99797.38;5052620;28;20657;-54
2022/11/30 00:14:13;;;;;;;11.93;8.67;;;;;;;8.66;100.00;99794.81;5052581;28;20682;-54
2022/11/30 00:16:43;;;;;;;13.77;11.65;;;;;;;8.72;100.00;99791.56;5052002;28;20440;-54
2022/11/30 00:19:13;;;;;;;9.87;8.27;;;;;;;8.75;100.00;99791.66;5052638;28;20188;-54
2022/11/30 00:21:41;;;;;;;8.70;6.60;;;;;;;8.67;100.00;99796.56;5052565;28;20279;-54
2022/11/30 00:24:10;;;;;;;7.90;6.47;;;;;;;8.57;100.00;99770.66;5033754;28;20279;-54
2022/11/30 00:26:37;;;;;;;9.80;7.40;;;;;;;8.66;100.00;99801.63;5017062;28;20188;-54
2022/11/30 00:29:06;;;;;;;9.93;7.53;;;;;;;8.62;100.00;99793.03;5052408;28;20190;-54
2022/11/30 00:31:35;;;;;;;11.67;8.10;;;;;;;8.66;100.00;99789.72;5052406;28;20187;-54
2022/11/30 00:34:03;;;;;;;13.07;9.37;;;;;;;8.67;100.00;99799.13;5052101;28;20188;-54
2022/11/30 00:36:30;;;;;;;14.47;9.37;;;;;;;8.60;100.00;99788.66;5052162;28;20669;-54
2022/11/30 00:38:58;;;;;;;12.13;9.30;;;;;;;8.60;100.00;99789.53;5052172;28;20191;-54
2022/11/30 00:41:26;;;;;;;13.47;9.77;;;;;;;8.64;100.00;99793.94;5052335;28;20210;-54
2022/11/30 00:43:56;;;;;;;13.07;9.37;;;;;;;8.68;100.00;99794.91;5052168;28;20222;-58
2022/11/30 00:46:25;;;;;;;13.13;9.80;;;;;;;8.58;100.00;99769.81;5051069;28;20198;-53
2022/11/30 00:48:54;;;;;;;12.63;9.53;;;;;;;8.69;100.00;99777.00;5052178;28;20192;-53
2022/11/30 00:51:21;;;;;;;11.67;8.73;;;;;;;8.68;100.00;99789.78;5050618;28;20222;-54
2022/11/30 00:53:47;;;;;;;10.07;8.67;;;;;;;8.65;100.00;99785.41;5052090;28;20222;-54
2022/11/30 00:56:15;;;;;;;12.03;8.80;;;;;;;8.55;100.00;99756.94;5052073;28;20358;-54
2022/11/30 00:58:42;;;;;;;10.47;8.93;;;;;;;8.68;100.00;99771.84;5052434;28;20192;-54
2022/11/30 01:01:09;;;;;;;13.13;9.80;;;;;;;8.64;100.00;99778.56;5051868;28;20203;-54
2022/11/30 01:03:37;;;;;;;12.73;9.93;;;;;;;8.62;100.00;99781.91;5052583;28;20195;-54
2022/11/30 01:06:08;;;;;;;13.73;10.43;;;;;;;8.56;100.00;99782.59;5051837;28;20673;-53
2022/11/30 01:08:35;;;;;;;12.30;10.33;;;;;;;8.60;100.00;99779.28;5051975;28;20207;-53
2022/11/30 01:11:07;;;;;;;12.57;9.87;;;;;;;8.57;100.00;99784.31;5052124;28;20202;-54
2022/11/30 01:13:34;;;;;;;14.35;11.38;;;;;;;8.65;100.00;99780.28;5051625;28;20450;-54
2022/11/30 01:16:01;;;;;;;11.80;9.37;;;;;;;8.63;100.00;99784.50;5051867;28;20196;-54
2022/11/30 01:18:28;;;;;;;11.80;9.27;;;;;;;8.65;100.00;99784.56;5052662;28;20266;-54
2022/11/30 01:20:56;;;;;;;11.67;8.90;;;;;;;8.63;100.00;99781.94;5051782;28;20196;-54
2022/11/30 01:23:23;;;;;;;9.07;7.63;;;;;;;8.60;100.00;99781.84;5051928;28;20202;-54
2022/11/30 01:25:55;;;;;;;13.40;8.70;;;;;;;8.53;100.00;99785.06;5051797;28;20220;-54
2022/11/30 01:28:22;;;;;;;9.23;7.73;;;;;;;8.55;100.00;99785.09;5051885;28;20226;-54
2022/11/30 01:30:56;;;;;;;10.73;7.63;;;;;;;8.58;100.00;99775.81;5051654;28;20211;-54
2022/11/30 01:33:23;;;;;;;7.73;6.73;;;;;;;8.60;100.00;99778.41;5051735;28;20195;-54
2022/11/30 01:36:00;;;;;;;8.10;6.90;;;;;;;8.61;100.00;99778.47;5052146;28;20206;-54
2022/11/30 01:38:27;;;;;;;8.00;7.20;;;;;;;8.64;100.00;99778.56;5055643;28;20190;-54
2022/11/30 01:40:54;;;;;;;8.37;7.13;;;;;;;8.64;100.00;99778.56;5055451;28;20192;-54
2022/11/30 01:43:21;;;;;;;7.90;7.10;;;;;;;8.68;100.00;99770.13;5055364;28;20190;-54
2022/11/30 01:45:49;;;;;;;9.07;6.73;;;;;;;8.64;100.00;99770.00;5054796;28;20226;-54
2022/11/30 01:48:16;;;;;;;6.33;5.23;;;;;;;8.65;100.00;99764.91;5063712;28;20226;-54
2022/11/30 01:50:45;;;;;;;6.63;5.80;;;;;;;8.66;100.00;99765.78;5075368;28;20230;-54
2022/11/30 01:53:13;;;;;;;6.53;5.87;;;;;;;8.67;100.00;99764.97;5075496;28;20191;-53
2022/11/30 01:55:42;;;;;;;6.10;5.40;;;;;;;8.67;100.00;99763.28;5075214;28;20449;-54
2022/11/30 01:58:12;;;;;;;5.77;5.17;;;;;;;8.69;100.00;99760.75;5075129;28;20195;-54
2022/11/30 02:00:41;;;;;;;6.23;4.90;;;;;;;8.55;100.00;99739.00;5075166;28;20191;-53
2022/11/30 02:03:13;;;;;;;5.57;4.97;;;;;;;8.62;100.00;99764.84;5075168;28;20578;-54
2022/11/30 02:05:41;;;;;;;5.30;4.80;;;;;;;8.63;100.00;99761.44;5075338;28;20631;-54
2022/11/30 02:08:10;;;;;;;5.83;5.07;;;;;;;8.58;100.00;99763.00;5075111;28;20245;-55
2022/11/30 02:10:42;;;;;;;6.30;4.83;;;;;;;8.59;100.00;99767.31;5075363;28;20232;-54
2022/11/30 02:13:40;;;;;;;6.33;5.70;;;;;;;8.57;100.00;99765.53;5075503;28;20188;-54
2022/11/30 02:16:18;;;;;;;6.00;5.40;;;;;;;8.58;100.00;99765.56;5074966;28;20196;-54
2022/11/30 02:18:55;;;;;;;5.03;4.53;;;;;;;8.59;100.00;99756.19;5075010;28;20201;-54
2022/11/30 02:21:26;;;;;;;5.87;5.27;;;;;;;8.55;100.00;99739.88;5074806;28;20684;-54
2022/11/30 02:24:14;;;;;;;9.83;7.10;;;;;;;8.60;100.00;99755.34;5074935;28;20191;-54
2022/11/30 02:26:58;;;;;;;7.27;6.17;;;;;;;8.61;100.00;99760.53;5075104;28;20191;-54
2022/11/30 02:29:30;;;;;;;6.57;5.93;;;;;;;8.61;100.00;99752.84;5075599;28;20261;-54
2022/11/30 02:32:05;;;;;;;8.93;6.83;;;;;;;8.46;100.00;99733.66;5074836;28;20199;-54
2022/11/30 02:34:35;;;;;;;8.27;6.90;;;;;;;8.60;100.00;99763.91;5074898;28;20249;-54
2022/11/30 02:37:05;;;;;;;9.87;6.10;;;;;;;8.56;100.00;99766.34;5074810;28;20205;-54
2022/11/30 02:39:31;;;;;;;7.77;6.10;;;;;;;8.63;100.00;99776.81;5074590;28;20192;-54
2022/11/30 02:41:58;;;;;;;7.17;5.97;;;;;;;8.65;100.00;99769.19;5074314;28;20197;-54
2022/11/30 02:44:27;;;;;;;8.83;6.87;;;;;;;8.58;100.00;99755.34;5074232;28;20221;-54
2022/11/30 02:47:04;;;;;;;8.63;7.73;;;;;;;8.66;100.00;99769.22;5074578;28;20186;-54
2022/11/30 02:49:37;;;;;;;10.13;8.10;;;;;;;8.63;100.00;99774.25;5073852;28;20248;-54
2022/11/30 02:52:06;;;;;;;8.17;7.07;;;;;;;8.63;100.00;99769.13;5074629;28;20223;-54
2022/11/30 02:54:34;;;;;;;8.07;6.93;;;;;;;8.52;100.00;99756.84;5074597;28;20203;-53
2022/11/30 02:57:00;;;;;;;8.53;6.90;;;;;;;8.69;100.00;99776.13;5074484;28;20308;-54
2022/11/30 02:59:29;;;;;;;8.80;7.50;;;;;;;8.69;100.00;99771.88;5074673;28;20264;-55
2022/11/30 03:01:56;;;;;;;10.13;7.83;;;;;;;8.52;100.00;99760.28;5074068;28;20612;-54
2022/11/30 03:04:23;;;;;;;10.67;8.17;;;;;;;8.61;100.00;99783.59;5074095;28;20250;-53
2022/11/30 03:06:49;;;;;;;8.83;7.57;;;;;;;8.64;100.00;99778.56;5074090;28;20249;-54
2022/11/30 03:09:16;;;;;;;10.68;9.57;;;;;;;8.74;100.00;99770.28;5072635;28;20429;-54
2022/11/30 03:11:43;;;;;;;9.73;8.47;;;;;;;8.78;100.00;99767.00;5074006;28;20187;-54
2022/11/30 03:14:10;;;;;;;9.97;8.70;;;;;;;8.81;100.00;99769.66;5073814;28;20237;-53
2022/11/30 03:16:38;;;;;;;10.30;8.87;;;;;;;8.77;100.00;99774.63;5074282;28;20213;-53
2022/11/30 03:19:05;;;;;;;9.30;8.07;;;;;;;8.74;100.00;99772.84;5073814;28;20188;-54
2022/11/30 03:21:32;;;;;;;11.37;9.17;;;;;;;8.77;100.00;99777.19;5073713;28;20190;-54
2022/11/30 03:23:59;;;;;;;9.20;8.30;;;;;;;8.68;100.00;99766.72;5073478;28;20184;-54
2022/11/30 03:26:25;;;;;;;8.83;7.77;;;;;;;8.68;100.00;99775.25;5073958;28;20272;-54
2022/11/30 03:28:52;;;;;;;10.17;8.90;;;;;;;8.70;100.00;99776.19;5073518;28;20195;-54
2022/11/30 03:31:19;;;;;;;10.50;8.67;;;;;;;8.75;100.00;99777.16;5073532;28;20191;-54
2022/11/30 03:33:47;;;;;;;10.17;8.10;;;;;;;8.72;100.00;99777.06;5073425;28;20196;-54
2022/11/30 03:36:14;;;;;;;9.97;8.47;;;;;;;8.52;100.00;99765.41;5073500;28;20200;-55
2022/11/30 03:38:41;;;;;;;10.03;8.43;;;;;;;8.55;100.00;99780.84;5074042;28;20566;-55
2022/11/30 03:41:10;;;;;;;9.90;8.40;;;;;;;8.58;100.00;99778.38;5073419;28;20195;-54
2022/11/30 03:43:37;;;;;;;9.87;7.87;;;;;;;8.57;100.00;99779.19;5073563;28;20194;-55
2022/11/30 03:46:04;;;;;;;9.63;8.03;;;;;;;8.55;100.00;99779.97;5073123;28;20222;-54
2022/11/30 03:48:31;;;;;;;9.23;7.87;;;;;;;8.55;100.00;99778.28;5073235;28;20245;-55
2022/11/30 03:50:59;;;;;;;10.43;8.53;;;;;;;8.59;100.00;99792.06;5072977;28;20227;-55
2022/11/30 03:53:26;;;;;;;9.43;8.20;;;;;;;8.50;100.00;99776.41;5073698;28;20634;-55
2022/11/30 03:55:54;;;;;;;10.93;8.37;;;;;;;8.63;100.00;99789.63;5072983;28;20201;-54
2022/11/30 03:58:21;;;;;;;11.63;9.60;;;;;;;8.58;100.00;99785.19;5072926;28;20237;-55
2022/11/30 04:00:48;;;;;;;10.73;9.27;;;;;;;8.59;100.00;99789.50;5073108;28;20256;-55
2022/11/30 04:03:15;;;;;;;10.90;9.80;;;;;;;8.57;100.00;99792.00;5072879;28;20191;-55
2022/11/30 04:05:42;;;;;;;12.10;9.60;;;;;;;8.56;100.00;99779.16;5073572;28;20215;-55
2022/11/30 04:08:10;;;;;;;12.53;10.40;;;;;;;8.47;100.00;99779.75;5054673;28;20570;-55
2022/11/30 04:10:40;;;;;;;13.17;10.13;;;;;;;8.47;100.00;99789.13;5071589;28;20188;-55
2022/11/30 04:13:06;;;;;;;11.37;9.40;;;;;;;8.52;100.00;99796.13;5053003;28;20192;-54
2022/11/30 04:15:33;;;;;;;13.00;10.63;;;;;;;8.54;100.00;99797.03;5052877;28;20617;-54
2022/11/30 04:18:00;;;;;;;15.23;12.33;;;;;;;8.51;100.00;99796.09;5052691;28;20212;-54
2022/11/30 04:20:26;;;;;;;15.73;12.80;;;;;;;8.54;100.00;99797.03;5052735;28;20204;-54
2022/11/30 04:22:53;;;;;;;20.70;14.23;;;;;;;8.42;100.00;99793.25;5052605;28;20246;-54
2022/11/30 04:25:21;;;;;;;18.70;14.00;;;;;;;8.28;100.00;99796.28;5052358;28;20219;-55
2022/11/30 04:27:48;;;;;;;21.23;15.50;;;;;;;8.10;100.00;99792.28;5052369;28;20567;-54
2022/11/30 04:30:16;;;;;;;19.83;15.47;;;;;;;8.14;100.00;99794.09;5052312;28;20608;-55
2022/11/30 04:32:43;;;;;;;20.90;15.50;;;;;;;8.19;100.00;99802.75;5052454;28;20199;-54
2022/11/30 04:35:10;;;;;;;20.80;15.77;;;;;;;8.10;100.00;99784.59;5052523;28;20226;-55
2022/11/30 04:37:37;;;;;;;17.63;14.07;;;;;;;8.08;100.00;99781.09;5052176;28;20283;-54
2022/11/30 04:40:07;;;;;;;17.23;13.80;;;;;;;8.28;100.00;99803.97;5052320;28;20195;-54
2022/11/30 04:42:35;;;;;;;19.13;13.77;;;;;;;8.30;100.00;99804.00;5052273;28;20198;-54
2022/11/30 04:45:02;;;;;;;16.93;13.17;;;;;;;8.37;100.00;99805.94;5052198;28;20220;-54
2022/11/30 04:47:28;;;;;;;16.37;13.07;;;;;;;8.35;100.00;99799.88;5062974;28;20704;-55
2022/11/30 04:49:55;;;;;;;17.58;15.10;;;;;;;8.36;100.00;99800.75;5071244;28;20851;-54
2022/11/30 04:52:22;;;;;;;15.70;13.30;;;;;;;8.49;100.00;99805.44;5072097;28;20223;-55
2022/11/30 04:54:50;;;;;;;16.23;13.27;;;;;;;8.51;100.00;99801.22;5072453;28;20199;-55
2022/11/30 04:57:17;;;;;;;14.07;10.40;;;;;;;8.60;100.00;99801.47;5070602;28;20227;-55
2022/11/30 04:59:45;;;;;;;12.50;10.57;;;;;;;8.51;100.00;99796.97;5072090;28;20248;-55
2022/11/30 05:02:12;;;;;;;13.30;10.57;;;;;;;8.52;100.00;99811.50;5071869;28;20221;-55
2022/11/30 05:04:38;;;;;;;13.60;10.30;;;;;;;8.61;100.00;99813.44;5070356;28;20194;-56
2022/11/30 05:07:05;;;;;;;12.80;9.47;;;;;;;8.68;100.00;99805.97;5051449;28;20196;-55
2022/11/30 05:09:33;;;;;;;11.57;8.63;;;;;;;8.68;100.00;99810.25;5037155;28;20198;-53
2022/11/30 05:12:00;;;;;;;10.30;8.67;;;;;;;8.68;100.00;99810.25;5065453;28;20218;-54
2022/11/30 05:14:27;;;;;;;9.70;7.60;;;;;;;8.73;100.00;99812.13;5076076;28;20210;-55
2022/11/30 05:16:55;;;;;;;11.87;8.67;;;;;;;8.77;100.00;99816.50;5076752;28;20194;-55
2022/11/30 05:19:22;;;;;;;9.67;8.00;;;;;;;8.82;100.00;99819.19;5075887;28;20214;-54
2022/11/30 05:21:48;;;;;;;13.83;10.10;;;;;;;8.87;100.00;99818.47;5075805;28;20727;-53
2022/11/30 05:24:16;;;;;;;11.77;8.97;;;;;;;8.84;100.00;99823.50;5074179;28;20194;-55
2022/11/30 05:26:42;;;;;;;11.43;9.00;;;;;;;8.81;100.00;99830.28;5070541;28;20668;-54
2022/11/30 05:29:09;;;;;;;10.80;8.90;;;;;;;8.85;100.00;99829.50;5055590;28;20658;-54
2022/11/30 05:31:39;;;;;;;9.73;8.13;;;;;;;8.83;100.00;99821.81;5070702;28;20253;-55
2022/11/30 05:34:07;;;;;;;9.33;7.47;;;;;;;8.86;100.00;99829.56;5075956;28;20248;-55
2022/11/30 05:36:34;;;;;;;8.30;7.40;;;;;;;8.85;100.00;99835.50;5075942;28;20196;-53
2022/11/30 05:39:01;;;;;;;9.63;7.83;;;;;;;8.90;100.00;99833.94;5075546;28;20718;-54
2022/11/30 05:41:28;;;;;;;10.93;8.40;;;;;;;8.83;100.00;99820.94;5075469;28;20244;-55
2022/11/30 05:43:54;;;;;;;8.17;7.37;;;;;;;8.95;100.00;99839.22;5075509;28;20616;-54
2022/11/30 05:46:21;;;;;;;7.97;7.00;;;;;;;8.97;100.00;99850.38;5075156;28;20300;-54
2022/11/30 05:48:48;;;;;;;7.70;4.97;;;;;;;8.98;100.00;99854.69;5075870;28;20190;-55
2022/11/30 05:51:21;;;;;;;5.80;5.20;;;;;;;8.85;100.00;99843.19;5075159;28;20234;-55
2022/11/30 05:53:49;;;;;;;7.93;5.60;;;;;;;8.95;100.00;99849.47;5075474;28;20190;-55
2022/11/30 05:56:18;;;;;;;7.43;6.67;;;;;;;8.98;100.00;99857.25;5073910;28;20199;-57
2022/11/30 05:58:46;;;;;;;7.60;6.45;;;;;;;8.99;100.00;99842.72;5064911;28;20431;-55
2022/11/30 06:01:18;;;;;;;6.93;6.23;;;;;;;8.95;100.00;99852.03;5063830;28;20669;-55
2022/11/30 06:03:44;;;;;;;7.57;6.43;;;;;;;8.96;100.00;99846.06;5075305;28;20198;-55
2022/11/30 06:06:11;;;;;;;9.43;6.90;;;;;;;8.93;100.00;99840.00;5075098;28;20566;-55
2022/11/30 06:08:39;;;;;;;7.87;6.47;;;;;;;8.78;100.00;99843.88;5053400;28;20254;-57
2022/11/30 06:11:06;;;;;;;7.00;6.30;;;;;;;8.85;100.00;99850.88;5051397;28;20187;-55
2022/11/30 06:13:33;;;;;;;6.83;6.23;;;;;;;8.79;100.00;99849.81;5053254;28;20187;-55
2022/11/30 06:16:00;;;;;;;7.43;6.63;;;;;;;8.74;100.00;99852.28;5055095;28;20242;-55
2022/11/30 06:18:26;;;;;;;7.73;5.97;;;;;;;8.78;100.00;99854.13;5071710;28;20192;-55
2022/11/30 06:20:53;;;;;;;6.77;5.90;;;;;;;8.75;100.00;99859.16;5054672;28;20195;-55
2022/11/30 06:23:20;;;;;;;6.53;5.63;;;;;;;8.72;100.00;99853.94;5053708;28;20230;-56
2022/11/30 06:25:48;;;;;;;6.80;6.10;;;;;;;8.73;100.00;99859.94;5061861;28;20218;-55
2022/11/30 06:28:15;;;;;;;5.97;5.37;;;;;;;8.76;100.00;99860.84;5056187;28;20191;-55
2022/11/30 06:30:42;;;;;;;8.07;6.90;;;;;;;8.78;100.00;99873.72;5068987;28;20203;-55
2022/11/30 06:33:08;;;;;;;8.73;6.70;;;;;;;8.75;100.00;99874.50;5057190;28;20196;-55
2022/11/30 06:35:35;;;;;;;7.97;6.03;;;;;;;8.72;100.00;99878.66;5054461;28;20199;-55
2022/11/30 06:38:02;;;;;;;7.20;5.87;;;;;;;8.75;100.00;99873.63;5054293;28;20656;-55
2022/11/30 06:40:29;;;;;;;7.97;6.40;;;;;;;8.66;100.00;99878.47;5054258;28;20197;-55
2022/11/30 06:42:57;;;;;;;6.60;5.87;;;;;;;8.67;100.00;99875.97;5060761;28;20645;-54
2022/11/30 06:45:24;;;;;;;6.93;5.60;;;;;;;8.62;100.00;99880.09;5063015;28;20211;-55
2022/11/30 06:47:54;;;;;;;7.43;6.17;;;;;;;8.63;100.00;99875.81;5053982;28;20195;-55
2022/11/30 06:50:21;;;;;;;6.93;6.13;;;;;;;8.49;100.00;99854.94;5054319;28;20192;-56
2022/11/30 06:52:48;;;;;;;8.00;5.93;;;;;;;8.37;100.00;99854.56;5064357;28;20304;-55
2022/11/30 06:55:15;;;;;;;10.37;8.10;;;;;;;8.36;100.00;99855.38;5073919;28;20274;-55
2022/11/30 06:57:41;;;;;;;10.53;8.03;;;;;;;8.54;100.00;99873.00;5074369;28;20195;-54
2022/11/30 07:00:11;;;;;;;9.27;6.97;;;;;;;8.54;100.00;99878.97;5073873;28;20190;-54
2022/11/30 07:02:38;;;;;;;14.23;10.77;;;;;;;8.63;100.00;99878.38;5055348;28;20249;-54
2022/11/30 07:05:06;;;;;;;10.77;8.53;;;;;;;8.70;100.00;99888.00;5053415;28;20195;-55
2022/11/30 07:07:33;;;;;;;6.70;5.90;;;;;;;8.73;100.00;99883.84;5053363;28;20606;-55
2022/11/30 07:09:59;;;;;;;7.47;6.73;;;;;;;8.40;100.00;99823.94;5052113;28;20188;-55
2022/11/30 07:12:26;;;;;;;7.70;6.90;;;;;;;8.79;100.00;99881.44;5058599;28;20726;-55
2022/11/30 07:14:55;;;;;;;6.37;5.37;;;;;;;8.75;100.00;99887.31;5066084;28;20203;-55
2022/11/30 07:17:23;;;;;;;7.53;6.73;;;;;;;8.82;100.00;99891.78;5053449;28;20191;-55
2022/11/30 07:19:50;;;;;;;8.60;6.60;;;;;;;8.80;100.00;99884.88;5050145;28;20188;-55
2022/11/30 07:22:17;;;;;;;7.70;6.97;;;;;;;8.80;100.00;99890.88;5053180;28;20188;-55
2022/11/30 07:27:27;;;;;;;10.60;5.90;;;;;;;8.86;100.00;99896.19;5061640;28;20222;-55
2022/11/30 07:29:54;;;;;;;7.17;5.20;;;;;;;8.94;100.00;99895.53;5052022;28;20212;-55
2022/11/30 07:32:21;;;;;;;6.17;5.53;;;;;;;8.80;100.00;99898.56;5051193;28;20218;-56
2022/11/30 07:34:49;;;;;;;7.73;5.70;;;;;;;8.85;100.00;99896.13;5052337;28;20196;-55
2022/11/30 07:37:16;;;;;;;5.80;5.30;;;;;;;8.89;100.00;99896.28;5056053;28;20684;-54
2022/11/30 07:39:43;;;;;;;6.40;5.63;;;;;;;8.82;100.00;99894.34;5072830;28;20265;-54
2022/11/30 07:42:10;;;;;;;6.27;5.73;;;;;;;8.74;100.00;99898.38;5073393;28;20198;-54
2022/11/30 07:44:36;;;;;;;7.47;5.80;;;;;;;8.67;100.00;99899.03;5072622;28;20541;-55
2022/11/30 07:47:03;;;;;;;5.47;4.97;;;;;;;8.63;100.00;99902.31;5072872;28;20287;-55
2022/11/30 07:49:30;;;;;;;8.83;5.50;;;;;;;8.69;100.00;99905.06;5072661;28;20194;-55
2022/11/30 07:51:58;;;;;;;6.77;5.73;;;;;;;8.74;100.00;99903.50;5070927;28;20252;-54
2022/11/30 07:54:25;;;;;;;9.33;7.13;;;;;;;8.74;100.00;99902.63;5072832;28;20262;-55
2022/11/30 07:56:52;;;;;;;6.10;5.23;;;;;;;8.72;100.00;99904.28;5071405;28;20194;-55
2022/11/30 07:59:18;;;;;;;6.40;5.70;;;;;;;8.72;100.00;99906.84;5071797;28;20237;-54
2022/11/30 08:01:45;;;;;;;7.20;5.33;;;;;;;8.75;100.00;99905.25;5061033;28;20697;-56
2022/11/30 08:04:12;;;;;;;7.47;6.20;;;;;;;8.78;100.00;99907.91;5051941;28;20707;-55
2022/11/30 08:06:39;;;;;;;5.77;5.17;;;;;;;8.80;100.00;99903.69;5052188;28;20219;-55
2022/11/30 08:09:07;;;;;;;5.90;5.30;;;;;;;8.56;100.00;99887.59;5052239;28;20199;-55
2022/11/30 08:11:35;;;;;;;6.33;5.20;;;;;;;8.71;100.00;99903.41;5049502;28;20192;-55
2022/11/30 08:14:03;;;;;;;6.93;5.80;;;;;;;8.80;100.00;99901.13;5052173;28;20208;-55
2022/11/30 08:16:34;;;;;;;7.17;4.93;;;;;;;8.82;100.00;99911.41;5051874;28;20198;-55
2022/11/30 08:19:00;;;;;;;7.15;5.63;;;;;;;8.82;100.00;99907.16;5052030;28;20454;-55
2022/11/30 08:21:27;;;;;;;6.07;5.50;;;;;;;8.86;100.00;99908.13;5051315;28;20188;-56
2022/11/30 08:23:55;;;;;;;7.00;5.93;;;;;;;8.89;100.00;99903.97;5049572;28;20666;-56
2022/11/30 08:26:26;;;;;;;6.43;5.70;;;;;;;8.66;100.00;99894.72;5051813;28;20242;-55
2022/11/30 08:28:53;;;;;;;10.47;6.00;;;;;;;8.87;100.00;99904.75;5049156;28;20194;-56
2022/11/30 08:31:23;;;;;;;8.83;7.30;;;;;;;8.87;100.00;99903.03;5056659;28;20201;-55
2022/11/30 08:33:50;;;;;;;6.23;5.63;;;;;;;8.89;100.00;99906.53;5068572;28;20269;-56
2022/11/30 08:36:18;;;;;;;7.13;5.67;;;;;;;8.91;100.00;99906.56;5055696;28;20204;-56
2022/11/30 08:38:47;;;;;;;6.70;4.93;;;;;;;8.81;100.00;99879.81;5051580;28;20269;-55
2022/11/30 08:41:17;;;;;;;6.40;5.73;;;;;;;8.82;100.00;99881.53;5051382;28;20198;-56
2022/11/30 08:43:47;;;;;;;5.83;5.23;;;;;;;8.90;100.00;99903.13;5049119;28;20650;-55
2022/11/30 08:46:16;;;;;;;12.53;8.27;;;;;;;8.96;100.00;99894.75;5050409;28;20658;-55
2022/11/30 08:48:43;;;;;;;8.33;6.07;;;;;;;8.98;100.00;99888.00;5051529;28;20262;-55
2022/11/30 08:51:12;;;;;;;7.57;5.93;;;;;;;9.02;100.00;99888.94;5050984;28;20227;-55
2022/11/30 08:53:39;;;;;;;7.10;6.17;;;;;;;9.02;100.00;99888.94;5051231;28;20184;-55
2022/11/30 08:56:08;;;;;;;9.93;6.87;;;;;;;8.99;100.00;99896.53;5048914;28;20196;-55
2022/11/30 08:58:37;;;;;;;8.33;6.73;;;;;;;8.91;100.00;99878.38;5067064;28;20245;-55
2022/11/30 09:01:09;;;;;;;8.13;6.70;;;;;;;8.97;100.00;99896.50;5071855;28;20183;-56
2022/11/30 09:03:36;;;;;;;10.33;8.27;;;;;;;8.87;100.00;99889.38;5063090;28;20198;-55
2022/11/30 09:06:05;;;;;;;9.20;6.87;;;;;;;8.92;100.00;99892.94;5063862;28;20543;-55
2022/11/30 09:08:33;;;;;;;8.90;6.93;;;;;;;9.00;100.00;99896.59;5051718;28;20192;-55
2022/11/30 09:11:08;;;;;;;8.70;7.80;;;;;;;9.07;100.00;99902.75;5050927;28;20187;-56
2022/11/30 09:13:35;;;;;;;8.00;6.63;;;;;;;9.02;100.00;99897.50;5050178;28;20187;-56
2022/11/30 09:16:01;;;;;;;7.87;7.07;;;;;;;9.00;100.00;99898.28;5049908;28;20256;-55
2022/11/30 09:18:29;;;;;;;7.43;6.47;;;;;;;8.98;100.00;99889.69;5050461;28;20192;-54
2022/11/30 09:20:59;;;;;;;9.70;6.87;;;;;;;8.99;100.00;99891.41;5051669;28;20669;-55
2022/11/30 09:23:27;;;;;;;8.40;7.33;;;;;;;9.02;100.00;99883.81;5037938;28;20717;-56
2022/11/30 09:25:56;;;;;;;9.27;7.13;;;;;;;8.94;100.00;99885.28;5057658;28;20616;-54
2022/11/30 09:28:22;;;;;;;10.00;8.20;;;;;;;8.81;100.00;99882.38;5071250;28;20645;-55
2022/11/30 09:30:49;;;;;;;9.68;8.68;;;;;;;9.00;100.00;99881.22;5071062;28;20787;-55
2022/11/30 09:33:16;;;;;;;9.00;7.63;;;;;;;9.01;100.00;99888.06;5069202;28;20562;-56
2022/11/30 09:35:44;;;;;;;9.67;7.80;;;;;;;9.04;100.00;99888.16;5069300;28;20188;-55
2022/11/30 09:38:11;;;;;;;8.13;7.00;;;;;;;8.98;100.00;99877.75;5069631;28;20195;-55
2022/11/30 09:40:40;;;;;;;12.87;7.50;;;;;;;9.07;100.00;99883.09;5070048;28;20194;-55
2022/11/30 09:43:19;;;;;;;7.40;6.67;;;;;;;9.11;100.00;99882.38;5070657;28;20227;-55
2022/11/30 09:45:53;;;;;;;8.07;7.27;;;;;;;8.92;100.00;99882.69;5070546;28;20645;-55
2022/11/30 09:48:40;;;;;;;7.57;6.67;;;;;;;9.03;100.00;99875.31;5071090;28;20211;-55
2022/11/30 09:51:14;;;;;;;8.07;7.28;;;;;;;9.15;100.00;99876.50;5070845;28;20834;-54
2022/11/30 09:53:44;;;;;;;7.40;6.40;;;;;;;9.24;100.00;99874.19;5071199;28;20633;-55
2022/11/30 09:56:20;;;;;;;9.07;6.67;;;;;;;9.32;100.00;99875.28;5071159;28;20186;-54
2022/11/30 09:58:51;;;;;;;7.53;6.67;;;;;;;9.29;100.00;99871.75;5074481;28;20183;-55
2022/11/30 10:01:20;;;;;;;9.17;8.27;;;;;;;9.19;100.00;99875.78;5075757;28;20195;-55
2022/11/30 10:03:47;;;;;;;10.43;8.67;;;;;;;9.24;100.00;99884.47;5046879;28;20196;-54
2022/11/30 10:06:24;;;;;;;10.18;9.18;;;;;;;9.38;100.00;99882.25;5033914;28;20433;-55
2022/11/30 10:09:06;;;;;;;9.90;8.90;;;;;;;9.20;100.00;99867.25;5034817;28;20196;-55
2022/11/30 10:11:52;;;;;;;9.63;8.63;;;;;;;9.37;100.00;99867.69;5034990;28;20596;-54
2022/11/30 10:14:32;;;;;;;9.20;7.60;;;;;;;9.48;100.00;99884.25;5034500;28;20663;-54
2022/11/30 10:17:08;;;;;;;10.75;9.00;;;;;;;9.37;100.00;99883.97;5034134;28;20567;-55
2022/11/30 10:19:57;;;;;;;9.70;8.67;;;;;;;9.32;100.00;99882.09;5034775;28;20272;-55
2022/11/30 10:22:32;;;;;;;11.03;8.77;;;;;;;9.26;100.00;99885.34;5034573;28;20224;-55
2022/11/30 10:25:13;;;;;;;12.80;11.17;;;;;;;9.27;100.00;99887.09;5034651;28;20206;-54
2022/11/30 10:27:49;;;;;;;12.43;10.57;;;;;;;9.20;100.00;99874.94;5034253;28;20239;-54
2022/11/30 10:30:20;;;;;;;14.63;12.40;;;;;;;9.31;100.00;99890.63;5034705;28;20787;-55
2022/11/30 10:32:50;;;;;;;14.23;11.33;;;;;;;9.31;100.00;99881.22;5038667;28;20200;-54
2022/11/30 10:35:22;;;;;;;11.70;9.93;;;;;;;9.43;100.00;99878.13;5053999;28;20191;-55
2022/11/30 10:37:51;;;;;;;11.60;9.13;;;;;;;9.28;100.00;99878.59;5046506;28;20674;-55
2022/11/30 10:40:23;;;;;;;11.57;9.27;;;;;;;9.41;100.00;99879.78;5057604;28;20223;-54
2022/11/30 10:43:00;;;;;;;11.20;9.53;;;;;;;9.55;100.00;99875.91;5051900;28;20188;-55
2022/11/30 10:45:29;;;;;;;11.50;8.63;;;;;;;9.70;100.00;99883.97;5059487;28;20592;-55
2022/11/30 10:48:01;;;;;;;10.97;9.33;;;;;;;9.82;100.00;99876.59;5074597;28;20224;-56
2022/11/30 10:50:29;;;;;;;10.23;7.60;;;;;;;9.82;100.00;99884.31;5074331;28;20187;-56
2022/11/30 10:53:00;;;;;;;7.87;7.07;;;;;;;9.54;99.57;99858.75;5074261;28;20191;-56
2022/11/30 10:55:29;;;;;;;9.77;7.90;;;;;;;9.71;100.00;99884.84;5073631;28;20191;-55
2022/11/30 10:58:10;;;;;;;9.60;8.60;;;;;;;9.70;99.93;99878.84;5066369;28;20195;-55
2022/11/30 11:00:36;;;;;;;13.80;10.87;;;;;;;9.78;100.00;99872.22;5073835;28;20183;-55
2022/11/30 11:03:21;;;;;;;18.93;9.93;;;;;;;9.83;100.00;99869.78;5073960;28;20270;-54
2022/11/30 11:06:03;;;;;;;9.30;8.20;;;;;;;9.77;100.00;99869.63;5073825;28;20194;-54
2022/11/30 11:08:32;;;;;;;9.47;7.50;;;;;;;9.79;99.93;99870.53;5073040;28;20284;-54
2022/11/30 11:10:59;;;;;;;10.47;8.87;;;;;;;9.69;100.00;99871.13;5054370;28;20662;-54
2022/11/30 11:13:38;;;;;;;13.87;10.73;;;;;;;9.73;100.00;99868.66;5053383;28;20203;-55
2022/11/30 11:16:07;;;;;;;14.90;12.07;;;;;;;9.71;100.00;99861.75;5053682;28;20184;-55
2022/11/30 11:18:35;;;;;;;16.50;11.13;;;;;;;9.70;100.00;99857.44;5053458;28;20658;-55
2022/11/30 11:21:05;;;;;;;15.45;13.50;;;;;;;9.81;100.00;99856.91;5052942;28;20439;-54
2022/11/30 11:23:36;;;;;;;13.50;10.63;;;;;;;9.77;100.00;99856.78;5052819;28;20184;-56
2022/11/30 11:26:04;;;;;;;14.93;11.40;;;;;;;9.76;99.25;99850.78;5033520;28;20204;-55
2022/11/30 11:28:32;;;;;;;14.10;12.43;;;;;;;9.83;99.84;99850.09;5032292;28;20512;-55
2022/11/30 11:30:59;;;;;;;15.77;13.17;;;;;;;9.83;98.84;99847.53;5037483;28;20662;-55
2022/11/30 11:33:28;;;;;;;14.13;11.43;;;;;;;9.78;97.90;99849.13;5053127;28;20643;-55
2022/11/30 11:36:12;;;;;;;13.80;12.40;;;;;;;9.64;98.05;99842.75;5053149;28;20650;-55
2022/11/30 11:38:42;;;;;;;13.53;11.00;;;;;;;9.35;98.40;99828.34;5053314;28;20676;-55
2022/11/30 11:41:18;;;;;;;12.80;10.07;;;;;;;9.34;99.40;99847.09;5053165;28;20192;-55